PGT3011 LTDB-LTBJ
Flight info
| Callsign | PGT3011 |
|---|---|
| Flight time | N/A |
| Altitude | 38000 |
| Route | MANAZ UW74 MUT UR55 AYT UT489 KAVAK UT283 OKESA |
| Aircraft | A20N/M-SDE2E3FGHIJ1RWXY/LB1 |
Departure
| Time | 2026-05-08 10:40 |
|---|---|
| Airport | Çukurova International Airport (LTDB) |
Arrival
| Time | N/A |
|---|---|
| Airport | Adnan Menderes International Airport (LTBJ) |
| Time | Latitude | Longitude | Altitude | Speed | Heading |
|---|---|---|---|---|---|
| 2026-05-08 10:18 | 36.90267 | 35.07092 | 35 ft | 0 kts | 301° |
| 2026-05-08 10:28 | 36.90266 | 35.07092 | 35 ft | 0 kts | 301° |
| 2026-05-08 10:28 | 36.90266 | 35.07093 | 35 ft | 1 kts | 301° |
| 2026-05-08 10:29 | 36.90259 | 35.07108 | 35 ft | 2 kts | 301° |
| 2026-05-08 10:29 | 36.90251 | 35.07124 | 35 ft | 2 kts | 301° |
| 2026-05-08 10:29 | 36.90243 | 35.07140 | 35 ft | 2 kts | 301° |
| 2026-05-08 10:29 | 36.90236 | 35.07155 | 35 ft | 2 kts | 327° |
| 2026-05-08 10:30 | 36.90221 | 35.07159 | 35 ft | 2 kts | 11° |
| 2026-05-08 10:30 | 36.90213 | 35.07156 | 35 ft | 1 kts | 36° |
| 2026-05-08 10:30 | 36.90208 | 35.07152 | 35 ft | 0 kts | 31° |
| 2026-05-08 10:33 | 36.90210 | 35.07153 | 35 ft | 0 kts | 31° |
| 2026-05-08 10:33 | 36.90218 | 35.07159 | 35 ft | 1 kts | 32° |
| 2026-05-08 10:33 | 36.90236 | 35.07173 | 35 ft | 5 kts | 31° |
| 2026-05-08 10:33 | 36.90276 | 35.07232 | 35 ft | 9 kts | 88° |
| 2026-05-08 10:34 | 36.90245 | 35.07315 | 35 ft | 11 kts | 120° |
| 2026-05-08 10:34 | 36.90205 | 35.07401 | 35 ft | 11 kts | 121° |
| 2026-05-08 10:34 | 36.90160 | 35.07493 | 35 ft | 12 kts | 124° |
| 2026-05-08 10:34 | 36.90084 | 35.07541 | 35 ft | 13 kts | 189° |
| 2026-05-08 10:35 | 36.89980 | 35.07472 | 34 ft | 20 kts | 212° |
| 2026-05-08 10:35 | 36.89868 | 35.07386 | 34 ft | 21 kts | 212° |
| 2026-05-08 10:35 | 36.89716 | 35.07271 | 33 ft | 26 kts | 211° |
| 2026-05-08 10:35 | 36.89559 | 35.07151 | 33 ft | 25 kts | 211° |
| 2026-05-08 10:36 | 36.89411 | 35.07038 | 33 ft | 24 kts | 210° |
| 2026-05-08 10:36 | 36.89267 | 35.06929 | 32 ft | 24 kts | 212° |
| 2026-05-08 10:36 | 36.89115 | 35.06812 | 32 ft | 25 kts | 211° |
| 2026-05-08 10:36 | 36.88965 | 35.06699 | 33 ft | 24 kts | 210° |
| 2026-05-08 10:37 | 36.88822 | 35.06591 | 31 ft | 24 kts | 211° |
| 2026-05-08 10:37 | 36.88671 | 35.06475 | 30 ft | 25 kts | 211° |
| 2026-05-08 10:37 | 36.88519 | 35.06358 | 30 ft | 25 kts | 212° |
| 2026-05-08 10:37 | 36.88361 | 35.06239 | 29 ft | 27 kts | 211° |
| 2026-05-08 10:38 | 36.88198 | 35.06114 | 28 ft | 27 kts | 213° |
| 2026-05-08 10:38 | 36.88040 | 35.05994 | 27 ft | 26 kts | 211° |
| 2026-05-08 10:38 | 36.87920 | 35.05973 | 26 ft | 16 kts | 127° |
| 2026-05-08 10:38 | 36.87864 | 35.06102 | 25 ft | 16 kts | 95° |
| 2026-05-08 10:39 | 36.87942 | 35.06197 | 25 ft | 16 kts | 31° |
| 2026-05-08 10:39 | 36.88105 | 35.06320 | 26 ft | 53 kts | 31° |
| 2026-05-08 10:39 | 36.88620 | 35.06711 | 30 ft | 118 kts | 32° |
| 2026-05-08 10:39 | 36.89490 | 35.07371 | 63 ft | 167 kts | 32° |
| 2026-05-08 10:40 | 36.90482 | 35.08151 | 504 ft | 174 kts | 32° |
| 2026-05-08 10:40 | 36.91515 | 35.08952 | 1109 ft | 177 kts | 32° |
| 2026-05-08 10:40 | 36.92567 | 35.09745 | 1788 ft | 176 kts | 32° |
| 2026-05-08 10:40 | 36.93633 | 35.10534 | 2224 ft | 186 kts | 32° |
| 2026-05-08 10:41 | 36.94778 | 35.11400 | 2572 ft | 202 kts | 32° |
| 2026-05-08 10:41 | 36.96073 | 35.12278 | 2929 ft | 220 kts | 19° |
| 2026-05-08 10:41 | 36.97664 | 35.12289 | 3214 ft | 244 kts | 341° |
| 2026-05-08 10:41 | 36.99066 | 35.11035 | 3707 ft | 260 kts | 307° |
| 2026-05-08 10:42 | 36.99989 | 35.09053 | 4324 ft | 270 kts | 300° |
| 2026-05-08 10:42 | 37.00940 | 35.07009 | 5050 ft | 276 kts | 302° |
| 2026-05-08 10:42 | 37.01931 | 35.04970 | 5878 ft | 278 kts | 303° |
| 2026-05-08 10:42 | 37.02927 | 35.02925 | 6722 ft | 281 kts | 301° |
| 2026-05-08 10:43 | 37.03560 | 35.00605 | 7587 ft | 286 kts | 278° |
| 2026-05-08 10:43 | 37.03462 | 34.98138 | 8538 ft | 288 kts | 263° |
| 2026-05-08 10:43 | 37.03132 | 34.95683 | 9422 ft | 290 kts | 262° |
| 2026-05-08 10:43 | 37.02790 | 34.93234 | 10244 ft | 292 kts | 263° |
| 2026-05-08 10:44 | 37.02424 | 34.90696 | 10827 ft | 304 kts | 260° |
| 2026-05-08 10:44 | 37.01902 | 34.88045 | 11231 ft | 323 kts | 257° |
| 2026-05-08 10:44 | 37.01302 | 34.85326 | 11788 ft | 333 kts | 257° |
| 2026-05-08 10:44 | 37.00677 | 34.82516 | 12559 ft | 336 kts | 257° |
| 2026-05-08 10:45 | 37.00050 | 34.79700 | 13323 ft | 339 kts | 257° |
| 2026-05-08 10:45 | 36.99418 | 34.76859 | 14096 ft | 342 kts | 258° |
| 2026-05-08 10:45 | 36.98783 | 34.74006 | 14831 ft | 344 kts | 258° |
| 2026-05-08 10:45 | 36.98146 | 34.71131 | 15535 ft | 347 kts | 258° |
| 2026-05-08 10:46 | 36.97499 | 34.68217 | 16258 ft | 350 kts | 258° |
| 2026-05-08 10:46 | 36.96849 | 34.65291 | 16936 ft | 353 kts | 258° |
| 2026-05-08 10:46 | 36.96196 | 34.62346 | 17585 ft | 357 kts | 258° |
| 2026-05-08 10:46 | 36.95532 | 34.59359 | 18251 ft | 360 kts | 258° |
| 2026-05-08 10:47 | 36.94859 | 34.56332 | 18898 ft | 362 kts | 259° |
| 2026-05-08 10:47 | 36.94181 | 34.53297 | 19545 ft | 365 kts | 258° |
| 2026-05-08 10:47 | 36.93498 | 34.50235 | 20166 ft | 368 kts | 259° |
| 2026-05-08 10:47 | 36.92816 | 34.47187 | 20775 ft | 371 kts | 258° |
| 2026-05-08 10:48 | 36.92148 | 34.44093 | 21365 ft | 373 kts | 261° |
| 2026-05-08 10:48 | 36.91636 | 34.40898 | 21972 ft | 373 kts | 265° |
| 2026-05-08 10:48 | 36.91331 | 34.37694 | 22575 ft | 373 kts | 269° |
| 2026-05-08 10:48 | 36.91175 | 34.34494 | 23143 ft | 375 kts | 270° |
| 2026-05-08 10:49 | 36.91039 | 34.31253 | 23719 ft | 377 kts | 270° |
| 2026-05-08 10:49 | 36.90902 | 34.27966 | 24292 ft | 379 kts | 270° |
| 2026-05-08 10:49 | 36.90763 | 34.24682 | 24816 ft | 381 kts | 270° |
| 2026-05-08 10:49 | 36.90624 | 34.21381 | 25301 ft | 384 kts | 270° |
| 2026-05-08 10:50 | 36.90480 | 34.18040 | 25775 ft | 387 kts | 270° |
| 2026-05-08 10:50 | 36.90334 | 34.14703 | 26223 ft | 389 kts | 270° |
| 2026-05-08 10:50 | 36.90186 | 34.11344 | 26689 ft | 391 kts | 270° |
| 2026-05-08 10:50 | 36.90037 | 34.07970 | 27134 ft | 393 kts | 271° |
| 2026-05-08 10:51 | 36.89887 | 34.04564 | 27571 ft | 394 kts | 271° |
| 2026-05-08 10:51 | 36.89735 | 34.01171 | 28005 ft | 395 kts | 271° |
| 2026-05-08 10:51 | 36.89580 | 33.97728 | 28444 ft | 396 kts | 271° |
| 2026-05-08 10:51 | 36.89427 | 33.94315 | 28849 ft | 398 kts | 271° |
| 2026-05-08 10:52 | 36.89267 | 33.90828 | 29214 ft | 400 kts | 272° |
| 2026-05-08 10:52 | 36.89190 | 33.87362 | 29553 ft | 400 kts | 275° |
| 2026-05-08 10:52 | 36.89262 | 33.83921 | 29879 ft | 402 kts | 276° |
| 2026-05-08 10:52 | 36.89360 | 33.80421 | 30317 ft | 401 kts | 277° |
| 2026-05-08 10:53 | 36.89451 | 33.76986 | 30844 ft | 398 kts | 278° |
| 2026-05-08 10:53 | 36.89536 | 33.73566 | 31357 ft | 395 kts | 278° |
| 2026-05-08 10:53 | 36.89614 | 33.70172 | 31869 ft | 392 kts | 278° |
| 2026-05-08 10:53 | 36.89690 | 33.66766 | 32320 ft | 390 kts | 279° |
| 2026-05-08 10:54 | 36.89760 | 33.63437 | 32750 ft | 387 kts | 279° |
| 2026-05-08 10:54 | 36.89830 | 33.60095 | 33248 ft | 383 kts | 279° |
| 2026-05-08 10:54 | 36.89895 | 33.56809 | 33726 ft | 379 kts | 279° |
| 2026-05-08 10:54 | 36.89960 | 33.53518 | 34159 ft | 376 kts | 280° |
| 2026-05-08 10:55 | 36.90025 | 33.50294 | 34513 ft | 375 kts | 280° |
| 2026-05-08 10:55 | 36.90092 | 33.47068 | 34831 ft | 375 kts | 280° |
| 2026-05-08 10:55 | 36.90157 | 33.43795 | 35194 ft | 373 kts | 279° |
| 2026-05-08 10:55 | 36.90215 | 33.40590 | 35548 ft | 371 kts | 279° |
| 2026-05-08 10:56 | 36.90274 | 33.37400 | 35861 ft | 370 kts | 279° |
| 2026-05-08 10:56 | 36.90329 | 33.34198 | 36157 ft | 369 kts | 279° |
| 2026-05-08 10:56 | 36.90385 | 33.31002 | 36433 ft | 368 kts | 279° |
| 2026-05-08 10:56 | 36.90440 | 33.27792 | 36679 ft | 368 kts | 279° |
| 2026-05-08 10:57 | 36.90493 | 33.24617 | 36908 ft | 369 kts | 279° |
| 2026-05-08 10:57 | 36.90545 | 33.21428 | 37157 ft | 368 kts | 279° |
| 2026-05-08 10:57 | 36.90648 | 33.15049 | 37526 ft | 369 kts | 279° |
| 2026-05-08 10:58 | 36.90699 | 33.11870 | 37659 ft | 370 kts | 279° |
| 2026-05-08 10:58 | 36.90750 | 33.08629 | 37805 ft | 372 kts | 279° |
| 2026-05-08 10:58 | 36.90797 | 33.05405 | 37933 ft | 373 kts | 279° |
| 2026-05-08 10:58 | 36.90848 | 33.02184 | 38099 ft | 373 kts | 279° |
| 2026-05-08 10:59 | 36.90894 | 32.98989 | 38241 ft | 373 kts | 279° |
| 2026-05-08 10:59 | 36.90942 | 32.95724 | 38242 ft | 374 kts | 279° |
| 2026-05-08 10:59 | 36.91032 | 32.89246 | 38251 ft | 374 kts | 278° |
| 2026-05-08 11:00 | 36.91119 | 32.82789 | 38250 ft | 374 kts | 279° |
| 2026-05-08 11:00 | 36.91203 | 32.76308 | 38257 ft | 373 kts | 278° |
| 2026-05-08 11:01 | 36.91282 | 32.69833 | 38266 ft | 374 kts | 278° |
| 2026-05-08 11:01 | 36.91357 | 32.63254 | 38269 ft | 374 kts | 279° |
| 2026-05-08 11:02 | 36.91466 | 32.53568 | 38277 ft | 374 kts | 279° |
| 2026-05-08 11:03 | 36.91533 | 32.47098 | 38280 ft | 374 kts | 279° |
| 2026-05-08 11:03 | 36.91598 | 32.40635 | 38283 ft | 375 kts | 278° |
| 2026-05-08 11:04 | 36.91658 | 32.34106 | 38280 ft | 374 kts | 278° |
| 2026-05-08 11:04 | 36.91712 | 32.27651 | 38288 ft | 373 kts | 278° |
| 2026-05-08 11:05 | 36.91764 | 32.21181 | 38297 ft | 373 kts | 278° |
| 2026-05-08 11:05 | 36.91819 | 32.14721 | 38302 ft | 374 kts | 277° |
| 2026-05-08 11:06 | 36.91863 | 32.08228 | 38296 ft | 374 kts | 277° |
| 2026-05-08 11:06 | 36.91905 | 32.01746 | 38296 ft | 374 kts | 278° |
| 2026-05-08 11:07 | 36.91947 | 31.95277 | 38307 ft | 376 kts | 278° |
| 2026-05-08 11:07 | 36.91982 | 31.88752 | 38299 ft | 375 kts | 278° |
| 2026-05-08 11:08 | 36.92016 | 31.82274 | 38297 ft | 374 kts | 277° |
| 2026-05-08 11:08 | 36.92046 | 31.75785 | 38264 ft | 376 kts | 278° |
| 2026-05-08 11:09 | 36.92074 | 31.69254 | 38237 ft | 377 kts | 277° |
| 2026-05-08 11:09 | 36.92095 | 31.62715 | 38241 ft | 377 kts | 277° |
| 2026-05-08 11:10 | 36.92114 | 31.56216 | 38252 ft | 376 kts | 277° |
| 2026-05-08 11:10 | 36.92130 | 31.49688 | 38246 ft | 378 kts | 277° |
| 2026-05-08 11:11 | 36.92141 | 31.43154 | 38231 ft | 377 kts | 277° |
| 2026-05-08 11:11 | 36.92149 | 31.36603 | 38206 ft | 377 kts | 277° |
| 2026-05-08 11:12 | 36.92152 | 31.30078 | 38191 ft | 378 kts | 276° |
| 2026-05-08 11:12 | 36.92149 | 31.23521 | 38149 ft | 378 kts | 277° |
| 2026-05-08 11:13 | 36.92148 | 31.16983 | 38128 ft | 377 kts | 276° |
| 2026-05-08 11:13 | 36.92143 | 31.10429 | 38122 ft | 378 kts | 276° |
| 2026-05-08 11:14 | 36.92134 | 31.03892 | 38122 ft | 378 kts | 276° |
| 2026-05-08 11:14 | 36.92121 | 30.97311 | 38109 ft | 378 kts | 276° |
| 2026-05-08 11:15 | 36.92103 | 30.90762 | 38116 ft | 379 kts | 276° |
| 2026-05-08 11:15 | 36.92216 | 30.84233 | 38116 ft | 376 kts | 280° |
| 2026-05-08 11:16 | 36.92808 | 30.77755 | 38121 ft | 377 kts | 284° |
| 2026-05-08 11:16 | 36.93894 | 30.71358 | 38126 ft | 378 kts | 288° |
| 2026-05-08 11:17 | 36.95269 | 30.65044 | 38143 ft | 378 kts | 289° |
| 2026-05-08 11:17 | 36.96660 | 30.58701 | 38162 ft | 379 kts | 289° |
| 2026-05-08 11:18 | 36.98051 | 30.52365 | 38185 ft | 379 kts | 289° |
| 2026-05-08 11:18 | 36.99437 | 30.46054 | 38217 ft | 379 kts | 289° |
| 2026-05-08 11:19 | 37.00826 | 30.39707 | 38232 ft | 378 kts | 289° |
| 2026-05-08 11:19 | 37.02210 | 30.33353 | 38247 ft | 379 kts | 288° |
| 2026-05-08 11:20 | 37.03587 | 30.26996 | 38273 ft | 380 kts | 288° |
| 2026-05-08 11:20 | 37.04954 | 30.20667 | 38267 ft | 380 kts | 288° |
| 2026-05-08 11:21 | 37.06330 | 30.14308 | 38280 ft | 379 kts | 288° |
| 2026-05-08 11:21 | 37.07705 | 30.07942 | 38291 ft | 380 kts | 288° |
| 2026-05-08 11:22 | 37.09084 | 30.01544 | 38285 ft | 380 kts | 288° |
| 2026-05-08 11:22 | 37.10453 | 29.95185 | 38288 ft | 380 kts | 288° |
| 2026-05-08 11:23 | 37.11843 | 29.88788 | 38284 ft | 380 kts | 288° |
| 2026-05-08 11:23 | 37.13209 | 29.82422 | 38288 ft | 380 kts | 288° |
| 2026-05-08 11:24 | 37.14558 | 29.76053 | 38283 ft | 380 kts | 287° |
| 2026-05-08 11:24 | 37.15905 | 29.69674 | 38273 ft | 380 kts | 287° |
| 2026-05-08 11:25 | 37.17256 | 29.63265 | 38262 ft | 381 kts | 288° |
| 2026-05-08 11:25 | 37.18599 | 29.56854 | 38256 ft | 380 kts | 287° |
| 2026-05-08 11:26 | 37.19929 | 29.50462 | 38253 ft | 380 kts | 288° |
| 2026-05-08 11:26 | 37.21253 | 29.44077 | 38243 ft | 380 kts | 287° |
| 2026-05-08 11:27 | 37.22586 | 29.37663 | 38238 ft | 380 kts | 287° |
| 2026-05-08 11:27 | 37.23906 | 29.31281 | 38132 ft | 380 kts | 287° |
| 2026-05-08 11:27 | 37.24563 | 29.28084 | 37809 ft | 376 kts | 287° |
| 2026-05-08 11:28 | 37.25211 | 29.24943 | 37503 ft | 374 kts | 287° |
| 2026-05-08 11:28 | 37.25861 | 29.21810 | 37192 ft | 370 kts | 286° |
| 2026-05-08 11:28 | 37.26506 | 29.18690 | 36885 ft | 368 kts | 286° |
| 2026-05-08 11:28 | 37.27144 | 29.15590 | 36579 ft | 368 kts | 286° |
| 2026-05-08 11:29 | 37.27781 | 29.12493 | 36272 ft | 368 kts | 286° |
| 2026-05-08 11:29 | 37.28416 | 29.09380 | 35967 ft | 369 kts | 286° |
| 2026-05-08 11:29 | 37.29050 | 29.06285 | 35665 ft | 369 kts | 286° |
| 2026-05-08 11:29 | 37.29692 | 29.03148 | 35359 ft | 369 kts | 286° |
| 2026-05-08 11:30 | 37.30323 | 29.00048 | 35061 ft | 370 kts | 286° |
| 2026-05-08 11:30 | 37.30964 | 28.96906 | 34768 ft | 371 kts | 285° |
| 2026-05-08 11:30 | 37.31598 | 28.93793 | 34479 ft | 371 kts | 285° |
| 2026-05-08 11:30 | 37.32233 | 28.90651 | 34190 ft | 372 kts | 285° |
| 2026-05-08 11:31 | 37.32875 | 28.87489 | 33899 ft | 373 kts | 285° |
| 2026-05-08 11:31 | 37.33503 | 28.84362 | 33611 ft | 374 kts | 285° |
| 2026-05-08 11:31 | 37.34138 | 28.81212 | 33178 ft | 376 kts | 285° |
| 2026-05-08 11:31 | 37.34785 | 28.77990 | 32556 ft | 380 kts | 285° |
| 2026-05-08 11:32 | 37.35431 | 28.74782 | 31735 ft | 383 kts | 285° |
| 2026-05-08 11:32 | 37.36083 | 28.71566 | 30870 ft | 386 kts | 285° |
| 2026-05-08 11:32 | 37.36763 | 28.68314 | 30209 ft | 385 kts | 286° |
| 2026-05-08 11:32 | 37.37441 | 28.65073 | 29554 ft | 384 kts | 286° |
| 2026-05-08 11:33 | 37.38113 | 28.61859 | 28946 ft | 382 kts | 286° |
| 2026-05-08 11:33 | 37.38780 | 28.58649 | 28379 ft | 380 kts | 286° |
| 2026-05-08 11:33 | 37.39436 | 28.55484 | 27819 ft | 377 kts | 286° |
| 2026-05-08 11:33 | 37.40091 | 28.52314 | 27280 ft | 374 kts | 286° |
| 2026-05-08 11:34 | 37.40744 | 28.49151 | 26752 ft | 371 kts | 286° |
| 2026-05-08 11:34 | 37.41383 | 28.46044 | 26241 ft | 367 kts | 286° |
| 2026-05-08 11:34 | 37.42018 | 28.42958 | 25746 ft | 364 kts | 286° |
| 2026-05-08 11:34 | 37.42641 | 28.39916 | 25280 ft | 360 kts | 286° |
| 2026-05-08 11:35 | 37.43264 | 28.36871 | 24807 ft | 357 kts | 287° |
| 2026-05-08 11:35 | 37.43881 | 28.33859 | 24321 ft | 355 kts | 285° |
| 2026-05-08 11:35 | 37.44492 | 28.30863 | 23835 ft | 353 kts | 286° |
| 2026-05-08 11:35 | 37.45090 | 28.27909 | 23385 ft | 351 kts | 286° |
| 2026-05-08 11:36 | 37.45685 | 28.24979 | 22944 ft | 348 kts | 286° |
| 2026-05-08 11:36 | 37.46287 | 28.22024 | 22501 ft | 346 kts | 286° |
| 2026-05-08 11:36 | 37.46877 | 28.19121 | 22017 ft | 345 kts | 286° |
| 2026-05-08 11:36 | 37.47479 | 28.16173 | 21436 ft | 348 kts | 285° |
| 2026-05-08 11:37 | 37.48070 | 28.13266 | 20882 ft | 349 kts | 285° |
| 2026-05-08 11:37 | 37.48674 | 28.10283 | 20407 ft | 350 kts | 285° |
| 2026-05-08 11:37 | 37.49270 | 28.07330 | 20208 ft | 352 kts | 285° |
| 2026-05-08 11:37 | 37.49868 | 28.04363 | 20183 ft | 351 kts | 285° |
| 2026-05-08 11:38 | 37.50463 | 28.01407 | 19742 ft | 351 kts | 284° |
| 2026-05-08 11:38 | 37.51067 | 27.98411 | 18843 ft | 360 kts | 284° |
| 2026-05-08 11:38 | 37.51690 | 27.95327 | 18017 ft | 365 kts | 284° |
| 2026-05-08 11:38 | 37.52312 | 27.92227 | 17387 ft | 364 kts | 284° |
| 2026-05-08 11:39 | 37.52925 | 27.89157 | 16811 ft | 363 kts | 283° |
| 2026-05-08 11:39 | 37.53537 | 27.86099 | 16217 ft | 361 kts | 284° |
| 2026-05-08 11:39 | 37.54141 | 27.83073 | 15621 ft | 360 kts | 284° |
| 2026-05-08 11:39 | 37.54751 | 27.80017 | 15066 ft | 359 kts | 283° |
| 2026-05-08 11:40 | 37.55354 | 27.76987 | 14465 ft | 359 kts | 283° |
| 2026-05-08 11:40 | 37.55962 | 27.73925 | 13869 ft | 358 kts | 283° |
| 2026-05-08 11:40 | 37.56558 | 27.70922 | 13265 ft | 358 kts | 283° |
| 2026-05-08 11:40 | 37.57162 | 27.67872 | 12689 ft | 356 kts | 283° |
| 2026-05-08 11:41 | 37.57750 | 27.64902 | 12309 ft | 349 kts | 283° |
| 2026-05-08 11:41 | 37.58325 | 27.62008 | 12171 ft | 337 kts | 284° |
| 2026-05-08 11:41 | 37.59214 | 27.59277 | 12143 ft | 338 kts | 302° |
| 2026-05-08 11:41 | 37.60796 | 27.57116 | 12161 ft | 341 kts | 321° |
| 2026-05-08 11:42 | 37.62814 | 27.55500 | 12152 ft | 343 kts | 327° |
| 2026-05-08 11:42 | 37.64840 | 27.53985 | 12139 ft | 330 kts | 327° |
| 2026-05-08 11:42 | 37.66759 | 27.52552 | 12125 ft | 312 kts | 327° |
| 2026-05-08 11:42 | 37.68578 | 27.51181 | 12141 ft | 301 kts | 327° |
| 2026-05-08 11:43 | 37.70392 | 27.49807 | 12139 ft | 301 kts | 327° |
| 2026-05-08 11:43 | 37.72174 | 27.48447 | 12114 ft | 301 kts | 327° |
| 2026-05-08 11:43 | 37.73964 | 27.47078 | 12145 ft | 301 kts | 327° |
| 2026-05-08 11:43 | 37.75753 | 27.45705 | 12151 ft | 300 kts | 327° |
| 2026-05-08 11:44 | 37.77542 | 27.44336 | 12141 ft | 299 kts | 327° |
| 2026-05-08 11:44 | 37.79293 | 27.42996 | 11886 ft | 296 kts | 327° |
| 2026-05-08 11:44 | 37.81069 | 27.41630 | 11446 ft | 296 kts | 327° |
| 2026-05-08 11:44 | 37.82820 | 27.40288 | 11061 ft | 296 kts | 326° |
| 2026-05-08 11:45 | 37.84588 | 27.38927 | 10676 ft | 295 kts | 326° |
| 2026-05-08 11:45 | 37.86327 | 27.37589 | 10311 ft | 293 kts | 327° |
| 2026-05-08 11:45 | 37.88043 | 27.36270 | 10030 ft | 289 kts | 326° |
| 2026-05-08 11:45 | 37.89763 | 27.34945 | 9604 ft | 290 kts | 326° |
| 2026-05-08 11:46 | 37.91502 | 27.33596 | 9200 ft | 289 kts | 326° |
| 2026-05-08 11:46 | 37.93212 | 27.32263 | 8832 ft | 288 kts | 326° |
| 2026-05-08 11:46 | 37.94915 | 27.30941 | 8450 ft | 287 kts | 326° |
| 2026-05-08 11:46 | 37.96614 | 27.29625 | 8068 ft | 286 kts | 326° |
| 2026-05-08 11:47 | 37.98298 | 27.28324 | 7601 ft | 280 kts | 326° |
| 2026-05-08 11:47 | 37.99927 | 27.27065 | 7157 ft | 270 kts | 326° |
| 2026-05-08 11:47 | 38.01501 | 27.25849 | 6670 ft | 263 kts | 326° |
| 2026-05-08 11:47 | 38.03059 | 27.24645 | 6137 ft | 259 kts | 326° |
| 2026-05-08 11:48 | 38.04552 | 27.23489 | 5763 ft | 249 kts | 327° |
| 2026-05-08 11:48 | 38.06071 | 27.22460 | 5252 ft | 248 kts | 338° |
| 2026-05-08 11:48 | 38.07726 | 27.21843 | 4655 ft | 249 kts | 346° |
| 2026-05-08 11:48 | 38.09389 | 27.21394 | 4172 ft | 244 kts | 346° |
| 2026-05-08 11:49 | 38.11053 | 27.20951 | 3749 ft | 237 kts | 346° |
| 2026-05-08 11:49 | 38.12609 | 27.20509 | 3444 ft | 226 kts | 345° |
| 2026-05-08 11:49 | 38.14103 | 27.20061 | 3151 ft | 216 kts | 345° |
| 2026-05-08 11:49 | 38.15540 | 27.19622 | 2902 ft | 206 kts | 345° |
| 2026-05-08 11:50 | 38.16899 | 27.19206 | 2626 ft | 196 kts | 345° |
| 2026-05-08 11:50 | 38.18167 | 27.18821 | 2348 ft | 181 kts | 345° |
| 2026-05-08 11:50 | 38.19340 | 27.18466 | 2108 ft | 167 kts | 346° |
| 2026-05-08 11:50 | 38.20447 | 27.18130 | 1917 ft | 158 kts | 346° |
| 2026-05-08 11:51 | 38.21482 | 27.17818 | 1688 ft | 146 kts | 346° |
| 2026-05-08 11:51 | 38.22471 | 27.17519 | 1521 ft | 146 kts | 345° |
| 2026-05-08 11:51 | 38.23449 | 27.17225 | 1328 ft | 145 kts | 345° |
| 2026-05-08 11:51 | 38.24441 | 27.16925 | 1123 ft | 144 kts | 346° |
| 2026-05-08 11:52 | 38.25412 | 27.16635 | 939 ft | 144 kts | 347° |
| 2026-05-08 11:52 | 38.26385 | 27.16346 | 729 ft | 143 kts | 346° |
| 2026-05-08 11:52 | 38.27352 | 27.16041 | 513 ft | 142 kts | 347° |
| 2026-05-08 11:52 | 38.28299 | 27.15779 | 417 ft | 131 kts | 347° |
| 2026-05-08 11:53 | 38.29146 | 27.15479 | 559 ft | 130 kts | 343° |
| 2026-05-08 11:53 | 38.30030 | 27.15194 | 1051 ft | 135 kts | 347° |
| 2026-05-08 11:53 | 38.30952 | 27.14855 | 1568 ft | 143 kts | 342° |
| 2026-05-08 11:53 | 38.31952 | 27.14497 | 1283 ft | 171 kts | 340° |
| 2026-05-08 11:54 | 38.33017 | 27.13821 | 1024 ft | 142 kts | 338° |